createdAt,value
2023-05-21T00:00:22.862Z,95890.56
2023-05-21T00:02:51.385Z,95896.00
2023-05-21T00:05:18.496Z,95900.56
2023-05-21T00:07:45.889Z,95886.19
2023-05-21T00:10:12.781Z,95891.47
2023-05-21T00:12:39.153Z,95893.09
2023-05-21T00:15:06.330Z,95892.69
2023-05-21T00:17:32.793Z,95886.31
2023-05-21T00:20:00.069Z,95896.63
2023-05-21T00:22:26.756Z,95881.09
2023-05-21T00:24:53.151Z,95883.09
2023-05-21T00:27:19.533Z,95878.03
2023-05-21T00:29:45.932Z,95884.31
2023-05-21T00:32:12.364Z,95886.69
2023-05-21T00:34:39.749Z,95874.13
2023-05-21T00:37:06.818Z,95884.63
2023-05-21T00:39:33.790Z,95870.63
2023-05-21T00:42:00.466Z,95869.69
2023-05-21T00:44:28.165Z,95873.47
2023-05-21T00:46:56.958Z,95872.31
2023-05-21T00:49:24.440Z,95849.06
2023-05-21T00:51:53.030Z,95859.75
2023-05-21T00:54:19.423Z,95863.81
2023-05-21T00:56:46.010Z,95853.06
2023-05-21T00:59:12.507Z,95866.78
2023-05-21T01:01:39.112Z,95866.06
2023-05-21T01:04:05.460Z,95854.53
2023-05-21T01:06:34.984Z,95859.81
2023-05-21T01:09:03.920Z,95859.06
2023-05-21T01:11:39.039Z,95863.38
2023-05-21T01:14:07.963Z,95855.25
2023-05-21T01:16:36.208Z,95859.69
2023-05-21T01:19:03.565Z,95852.06
2023-05-21T01:21:30.186Z,95856.91
2023-05-21T01:23:56.703Z,95861.47
2023-05-21T01:26:26.612Z,95856.66
2023-05-21T01:28:53.630Z,95853.22
2023-05-21T01:31:26.819Z,95856.13
2023-05-21T01:33:56.897Z,95836.75
2023-05-21T01:36:31.049Z,95850.28
2023-05-21T01:39:01.702Z,95841.50
2023-05-21T01:41:29.417Z,95829.22
2023-05-21T01:43:56.669Z,95844.28
2023-05-21T01:46:25.657Z,95839.84
2023-05-21T01:48:52.717Z,95837.19
2023-05-21T01:51:19.207Z,95833.41
2023-05-21T01:53:45.705Z,95839.94
2023-05-21T01:56:12.941Z,95812.88
2023-05-21T01:58:39.340Z,95830.56
2023-05-21T02:01:05.972Z,95834.50
2023-05-21T02:03:32.944Z,95828.47
2023-05-21T02:05:59.548Z,95828.03
2023-05-21T02:08:27.967Z,95835.66
2023-05-21T02:10:54.357Z,95830.44
2023-05-21T02:13:21.946Z,95832.72
2023-05-21T02:15:50.011Z,95842.28
2023-05-21T02:18:16.704Z,95835.59
2023-05-21T02:20:43.801Z,95837.59
2023-05-21T02:23:10.142Z,95839.84
2023-05-21T02:25:36.770Z,95842.00
2023-05-21T02:28:03.746Z,95837.25
2023-05-21T02:30:32.492Z,95839.19
2023-05-21T02:32:59.666Z,95827.00
2023-05-21T02:35:27.133Z,95830.06
2023-05-21T02:37:53.499Z,95837.59
2023-05-21T02:40:19.977Z,95838.19
2023-05-21T02:42:46.397Z,95838.19
2023-05-21T02:45:13.757Z,95843.28
2023-05-21T02:47:40.816Z,95841.31
2023-05-21T02:50:08.218Z,95834.47
2023-05-21T02:52:34.717Z,95840.59
2023-05-21T02:55:01.168Z,95851.25
2023-05-21T02:57:27.543Z,95841.50
2023-05-21T02:59:53.909Z,95842.97
2023-05-21T03:02:20.318Z,95850.44
2023-05-21T03:04:46.813Z,95868.25
2023-05-21T03:07:14.184Z,95859.41
2023-05-21T03:09:42.035Z,95854.50
2023-05-21T03:12:08.906Z,95839.38
2023-05-21T03:14:35.637Z,95855.97
2023-05-21T03:17:08.484Z,95849.56
2023-05-21T03:19:36.035Z,95862.38
2023-05-21T03:22:03.336Z,95842.75
2023-05-21T03:24:33.381Z,95852.25
2023-05-21T03:27:03.628Z,95859.47
2023-05-21T03:29:29.990Z,95842.38
2023-05-21T03:31:58.160Z,95854.13
2023-05-21T03:34:25.601Z,95858.94
2023-05-21T03:36:52.055Z,95863.34
2023-05-21T03:39:18.738Z,95853.59
2023-05-21T03:41:45.111Z,95861.19
2023-05-21T03:44:32.408Z,95852.09
2023-05-21T03:46:59.275Z,95850.38
2023-05-21T03:49:28.372Z,95863.97
2023-05-21T03:51:55.629Z,95856.50
2023-05-21T03:54:22.043Z,95864.84
2023-05-21T03:56:48.441Z,95862.22
2023-05-21T03:59:14.872Z,95863.78
2023-05-21T04:01:41.403Z,95866.47
2023-05-21T04:04:07.968Z,95872.88
2023-05-21T04:06:35.033Z,95876.19
2023-05-21T04:09:01.594Z,95876.44
2023-05-21T04:11:28.063Z,95871.03
2023-05-21T04:13:57.578Z,95866.88
2023-05-21T04:16:25.716Z,95869.53
2023-05-21T04:18:52.349Z,95886.47
2023-05-21T04:21:18.744Z,95867.00
2023-05-21T04:23:45.402Z,95890.47
2023-05-21T04:26:12.819Z,95877.50
2023-05-21T04:28:42.062Z,95884.31
2023-05-21T04:31:09.278Z,95901.44
2023-05-21T04:33:35.885Z,95888.63
2023-05-21T04:36:03.847Z,95898.75
2023-05-21T04:38:30.241Z,95898.50
2023-05-21T04:40:59.935Z,95903.50
2023-05-21T04:43:26.776Z,95902.16
2023-05-21T04:45:55.626Z,95897.53
2023-05-21T04:48:25.136Z,95905.91
2023-05-21T04:50:52.067Z,95902.19
2023-05-21T04:53:18.833Z,95898.56
2023-05-21T04:55:47.292Z,95909.66
2023-05-21T04:58:14.685Z,95885.63
2023-05-21T05:00:46.007Z,95903.53
2023-05-21T05:03:13.338Z,95899.50
2023-05-21T05:05:39.951Z,95910.25
2023-05-21T05:08:06.865Z,95898.34
2023-05-21T05:10:33.236Z,95898.31
2023-05-21T05:12:59.716Z,95894.38
2023-05-21T05:15:26.783Z,95903.59
2023-05-21T05:17:54.905Z,95899.44
2023-05-21T05:20:22.527Z,95897.66
2023-05-21T05:22:48.895Z,95903.84
2023-05-21T05:25:15.238Z,95902.97
2023-05-21T05:27:41.592Z,95900.06
2023-05-21T05:30:11.288Z,95903.63
2023-05-21T05:32:37.775Z,95892.97
2023-05-21T05:35:04.621Z,95894.31
2023-05-21T05:37:31.548Z,95892.41
2023-05-21T05:39:57.905Z,95894.53
2023-05-21T05:42:24.266Z,95885.81
2023-05-21T05:44:51.573Z,95893.88
2023-05-21T05:47:17.899Z,95896.00
2023-05-21T05:49:44.301Z,95877.66
2023-05-21T05:52:10.799Z,95885.91
2023-05-21T05:54:37.244Z,95885.47
2023-05-21T05:57:04.005Z,95891.47
2023-05-21T05:59:30.814Z,95888.03
2023-05-21T06:01:57.205Z,95889.22
2023-05-21T06:04:30.032Z,95886.41
2023-05-21T06:07:00.494Z,95888.50
2023-05-21T06:09:26.868Z,95895.94
2023-05-21T06:11:53.228Z,95877.19
2023-05-21T06:14:19.726Z,95891.56
2023-05-21T06:16:46.132Z,95885.91
2023-05-21T06:19:12.644Z,95885.00
2023-05-21T06:21:39.199Z,95883.09
2023-05-21T06:24:05.814Z,95869.16
2023-05-21T06:26:32.397Z,95874.06
2023-05-21T06:28:58.840Z,95883.03
2023-05-21T06:31:25.615Z,95887.22
2023-05-21T06:33:52.126Z,95889.22
2023-05-21T06:36:18.750Z,95882.38
2023-05-21T06:38:45.116Z,95900.09
2023-05-21T06:41:11.474Z,95888.41
2023-05-21T06:43:37.967Z,95894.03
2023-05-21T06:46:05.667Z,95893.06
2023-05-21T06:48:32.170Z,95884.88
2023-05-21T06:50:58.637Z,95889.72
2023-05-21T06:53:26.372Z,95889.56
2023-05-21T06:55:53.836Z,95879.63
2023-05-21T06:58:21.730Z,95885.63
2023-05-21T07:00:48.946Z,95902.03
2023-05-21T07:03:15.867Z,95870.63
2023-05-21T07:05:42.505Z,95898.44
2023-05-21T07:08:10.665Z,95882.81
2023-05-21T07:10:38.256Z,95903.53
2023-05-21T07:13:04.632Z,95895.63
2023-05-21T07:15:31.013Z,95901.59
2023-05-21T07:17:57.500Z,95899.44
2023-05-21T07:20:23.940Z,95908.28
2023-05-21T07:22:50.357Z,95893.16
2023-05-21T07:25:16.704Z,95884.28
2023-05-21T07:27:43.112Z,95894.50
2023-05-21T07:30:09.725Z,95889.94
2023-05-21T07:32:36.158Z,95889.81
2023-05-21T07:35:02.605Z,95897.13
2023-05-21T07:37:29.098Z,95881.97
2023-05-21T07:39:58.730Z,95891.53
2023-05-21T07:42:25.792Z,95878.63
2023-05-21T07:44:52.153Z,95890.09
2023-05-21T07:47:19.058Z,95889.00
2023-05-21T07:49:45.721Z,95883.59
2023-05-21T07:52:12.296Z,95889.16
2023-05-21T07:54:42.248Z,95880.56
2023-05-21T07:57:08.633Z,95880.38
2023-05-21T07:59:35.037Z,95887.88
2023-05-21T08:02:01.473Z,95908.41
2023-05-21T08:04:27.945Z,95889.13
2023-05-21T08:06:54.387Z,95901.91
2023-05-21T08:09:20.854Z,95899.00
2023-05-21T08:11:47.629Z,95891.41
2023-05-21T08:14:13.969Z,95890.03
2023-05-21T08:16:40.524Z,95902.13
2023-05-21T08:19:07.554Z,95886.94
2023-05-21T08:21:34.553Z,95910.75
2023-05-21T08:24:01.266Z,95903.41
2023-05-21T08:26:27.723Z,95893.31
2023-05-21T08:28:54.404Z,95895.25
2023-05-21T08:31:21.336Z,95893.97
2023-05-21T08:33:51.789Z,95913.41
2023-05-21T08:36:18.416Z,95892.50
2023-05-21T08:38:45.380Z,95914.84
2023-05-21T08:41:12.395Z,95888.84
2023-05-21T08:43:41.835Z,95909.25
2023-05-21T08:46:08.602Z,95911.47
2023-05-21T08:48:36.658Z,95902.50
2023-05-21T08:51:03.277Z,95894.03
2023-05-21T08:53:29.871Z,95905.34
2023-05-21T08:55:57.487Z,95887.84
2023-05-21T08:58:24.063Z,95903.44
2023-05-21T09:00:51.199Z,95911.25
2023-05-21T09:03:17.877Z,95889.63
2023-05-21T09:05:45.696Z,95892.00
2023-05-21T09:08:18.471Z,95888.59
2023-05-21T09:10:50.130Z,95896.97
2023-05-21T09:13:17.954Z,95895.34
2023-05-21T09:15:45.199Z,95896.94
2023-05-21T09:18:12.478Z,95881.06
2023-05-21T09:20:38.990Z,95896.50
2023-05-21T09:23:17.195Z,95884.22
2023-05-21T09:25:47.557Z,95878.72
2023-05-21T09:28:14.861Z,95879.41
2023-05-21T09:30:47.974Z,95891.53
2023-05-21T09:33:27.362Z,95877.28
2023-05-21T09:35:53.921Z,95875.50
2023-05-21T09:38:22.110Z,95884.44
2023-05-21T09:40:49.158Z,95872.22
2023-05-21T09:43:18.889Z,95887.88
2023-05-21T09:45:55.456Z,95869.56
2023-05-21T09:48:32.561Z,95869.28
2023-05-21T09:51:16.558Z,95878.34
2023-05-21T09:53:48.870Z,95871.09
2023-05-21T09:56:15.392Z,95866.56
2023-05-21T09:58:41.884Z,95853.13
2023-05-21T10:01:10.990Z,95881.72
2023-05-21T10:03:39.779Z,95850.44
2023-05-21T10:06:08.202Z,95873.16
2023-05-21T10:08:36.748Z,95852.97
2023-05-21T10:11:05.225Z,95864.75
2023-05-21T10:13:32.724Z,95855.13
2023-05-21T10:16:01.378Z,95843.91
2023-05-21T10:18:28.272Z,95854.34
2023-05-21T10:20:55.920Z,95856.34
2023-05-21T10:23:23.500Z,95854.72
2023-05-21T10:25:49.897Z,95854.22
2023-05-21T10:28:17.343Z,95849.53
2023-05-21T10:30:44.526Z,95831.28
2023-05-21T10:33:13.065Z,95832.50
2023-05-21T10:35:40.333Z,95837.50
2023-05-21T10:38:09.135Z,95853.16
2023-05-21T10:40:36.434Z,95839.59
2023-05-21T10:43:12.174Z,95836.59
2023-05-21T10:45:58.155Z,95821.56
2023-05-21T10:48:27.454Z,95819.81
2023-05-21T10:51:15.623Z,95778.06
2023-05-21T10:54:00.828Z,95801.16
2023-05-21T10:56:36.582Z,95808.38
2023-05-21T10:59:11.004Z,95808.91
2023-05-21T11:01:38.304Z,95816.66
2023-05-21T11:04:06.041Z,95823.03
2023-05-21T11:06:32.528Z,95823.19
2023-05-21T11:09:17.251Z,95810.19
2023-05-21T11:11:51.145Z,95801.88
2023-05-21T11:14:32.601Z,95808.25
2023-05-21T11:16:59.925Z,95782.13
2023-05-21T11:19:35.905Z,95797.59
2023-05-21T11:22:05.161Z,95789.28
2023-05-21T11:24:32.535Z,95788.28
2023-05-21T11:27:01.556Z,95790.06
2023-05-21T11:29:40.959Z,95793.09
2023-05-21T11:32:12.217Z,95797.69
2023-05-21T11:34:40.099Z,95786.16
2023-05-21T11:37:20.829Z,95761.25
2023-05-21T11:39:47.811Z,95768.66
2023-05-21T11:42:33.896Z,95768.06
2023-05-21T11:45:01.581Z,95761.41
2023-05-21T11:47:31.104Z,95743.50
2023-05-21T11:49:59.000Z,95724.25
2023-05-21T11:52:26.895Z,95753.69
2023-05-21T11:54:59.930Z,95763.84
2023-05-21T11:57:31.299Z,95753.69
2023-05-21T11:59:58.524Z,95757.34
2023-05-21T12:02:27.159Z,95746.63
2023-05-21T12:04:56.420Z,95757.38
2023-05-21T12:07:22.788Z,95747.03
2023-05-21T12:09:50.235Z,95737.13
2023-05-21T12:12:21.425Z,95739.84
2023-05-21T12:14:49.106Z,95738.31
2023-05-21T12:17:16.595Z,95713.34
2023-05-21T12:19:43.183Z,95736.53
2023-05-21T12:22:10.427Z,95744.91
2023-05-21T12:24:37.914Z,95726.13
2023-05-21T12:27:11.771Z,95706.16
2023-05-21T12:29:38.933Z,95713.78
2023-05-21T12:32:10.544Z,95716.41
2023-05-21T12:34:47.148Z,95693.47
2023-05-21T12:37:22.700Z,95715.75
2023-05-21T12:39:50.182Z,95711.31
2023-05-21T12:42:16.922Z,95693.63
2023-05-21T12:44:49.794Z,95703.84
2023-05-21T12:47:16.359Z,95705.91
2023-05-21T12:49:44.953Z,95719.56
2023-05-21T12:52:12.864Z,95707.25
2023-05-21T12:54:40.653Z,95699.34
2023-05-21T12:57:11.242Z,95706.81
2023-05-21T12:59:49.801Z,95709.03
2023-05-21T13:02:27.486Z,95716.44
2023-05-21T13:04:58.050Z,95715.81
2023-05-21T13:07:25.615Z,95707.59
2023-05-21T13:09:56.461Z,95700.84
2023-05-21T13:12:26.443Z,95707.72
2023-05-21T13:14:54.228Z,95716.06
2023-05-21T13:17:21.969Z,95691.00
2023-05-21T13:20:08.139Z,95699.97
2023-05-21T13:22:45.460Z,95707.78
2023-05-21T13:25:15.602Z,95714.03
2023-05-21T13:27:42.889Z,95704.00
2023-05-21T13:30:09.621Z,95706.00
2023-05-21T13:32:37.340Z,95696.13
2023-05-21T13:35:04.055Z,95708.03
2023-05-21T13:37:30.795Z,95706.19
2023-05-21T13:39:57.979Z,95706.56
2023-05-21T13:42:25.347Z,95706.53
2023-05-21T13:44:55.223Z,95707.81
2023-05-21T13:47:23.524Z,95712.09
2023-05-21T13:49:49.922Z,95705.03
2023-05-21T13:52:17.056Z,95696.31
2023-05-21T13:54:43.659Z,95702.94
2023-05-21T13:57:10.092Z,95715.72
2023-05-21T13:59:36.493Z,95699.81
2023-05-21T14:02:03.074Z,95704.81
2023-05-21T14:04:29.530Z,95704.94
2023-05-21T14:06:56.841Z,95720.44
2023-05-21T14:09:23.520Z,95718.81
2023-05-21T14:11:49.867Z,95705.56
2023-05-21T14:14:19.039Z,95700.13
2023-05-21T14:16:47.411Z,95701.94
2023-05-21T14:19:13.998Z,95693.28
2023-05-21T14:21:40.607Z,95704.94
2023-05-21T14:24:58.148Z,95717.31
2023-05-21T14:27:25.311Z,95704.66
2023-05-21T14:29:51.840Z,95707.38
2023-05-21T14:32:19.248Z,95699.88
2023-05-21T14:34:45.785Z,95703.75
2023-05-21T14:37:15.446Z,95700.38
2023-05-21T14:39:41.915Z,95704.56
2023-05-21T14:42:08.450Z,95709.47
2023-05-21T14:44:35.518Z,95703.78
2023-05-21T14:47:02.104Z,95702.34
2023-05-21T14:49:28.619Z,95696.75
2023-05-21T14:51:55.282Z,95701.41
2023-05-21T14:54:21.708Z,95691.94
2023-05-21T14:56:48.211Z,95685.81
2023-05-21T14:59:14.675Z,95705.78
2023-05-21T15:01:41.230Z,95687.03
2023-05-21T15:04:08.185Z,95696.69
2023-05-21T15:06:34.886Z,95686.34
2023-05-21T15:09:01.281Z,95683.03
2023-05-21T15:11:27.988Z,95679.25
2023-05-21T15:13:55.360Z,95688.28
2023-05-21T15:16:30.493Z,95686.84
2023-05-21T15:18:57.247Z,95685.09
2023-05-21T15:21:25.737Z,95677.88
2023-05-21T15:23:53.981Z,95681.84
2023-05-21T15:26:21.403Z,95685.63
2023-05-21T15:28:47.794Z,95691.72
2023-05-21T15:31:14.144Z,95689.84
2023-05-21T15:33:40.532Z,95688.25
2023-05-21T15:36:07.163Z,95683.88
2023-05-21T15:38:33.606Z,95671.22
2023-05-21T15:41:03.384Z,95685.34
2023-05-21T15:43:30.279Z,95689.56
2023-05-21T15:45:56.730Z,95694.06
2023-05-21T15:48:23.247Z,95688.88
2023-05-21T15:50:50.036Z,95703.06
2023-05-21T15:53:16.945Z,95702.34
2023-05-21T15:55:43.494Z,95704.59
2023-05-21T15:58:09.867Z,95709.81
2023-05-21T16:00:36.415Z,95711.63
2023-05-21T16:03:03.014Z,95702.84
2023-05-21T16:05:29.627Z,95703.22
2023-05-21T16:07:56.782Z,95700.66
2023-05-21T16:10:23.488Z,95702.13
2023-05-21T16:12:50.137Z,95696.41
2023-05-21T16:15:16.981Z,95706.19
2023-05-21T16:17:43.405Z,95702.13
2023-05-21T16:20:10.485Z,95695.97
2023-05-21T16:22:36.940Z,95686.25
2023-05-21T16:25:03.546Z,95706.03
2023-05-21T16:27:29.964Z,95690.03
2023-05-21T16:29:59.200Z,95696.97
2023-05-21T16:32:29.039Z,95695.19
2023-05-21T16:34:56.898Z,95698.59
2023-05-21T16:37:23.295Z,95701.97
2023-05-21T16:39:49.720Z,95715.03
2023-05-21T16:42:16.125Z,95699.00
2023-05-21T16:44:42.626Z,95693.66
2023-05-21T16:47:09.365Z,95702.47
2023-05-21T16:49:36.022Z,95696.88
2023-05-21T16:52:03.202Z,95706.34
2023-05-21T16:54:29.649Z,95699.16
2023-05-21T16:56:57.113Z,95712.28
2023-05-21T16:59:23.583Z,95704.31
2023-05-21T17:01:50.056Z,95712.69
2023-05-21T17:04:17.236Z,95704.84
2023-05-21T17:06:43.867Z,95707.38
2023-05-21T17:09:11.056Z,95706.06
2023-05-21T17:11:37.607Z,95706.50
2023-05-21T17:14:04.205Z,95708.66
2023-05-21T17:16:31.325Z,95709.06
2023-05-21T17:18:57.910Z,95716.25
2023-05-21T17:21:26.687Z,95702.53
2023-05-21T17:23:53.210Z,95710.28
2023-05-21T17:26:19.765Z,95718.75
2023-05-21T17:28:49.161Z,95712.25
2023-05-21T17:31:16.796Z,95698.88
2023-05-21T17:33:43.212Z,95712.09
2023-05-21T17:36:10.093Z,95714.06
2023-05-21T17:38:36.595Z,95708.03
2023-05-21T17:41:03.025Z,95721.22
2023-05-21T17:43:31.789Z,95722.06
2023-05-21T17:45:58.445Z,95731.97
2023-05-21T17:48:28.088Z,95717.47
2023-05-21T17:50:55.643Z,95722.03
2023-05-21T17:53:22.790Z,95721.25
2023-05-21T17:55:49.348Z,95733.06
2023-05-21T17:58:15.776Z,95724.72
2023-05-21T18:00:45.591Z,95737.13
2023-05-21T18:03:12.073Z,95737.34
2023-05-21T18:05:38.817Z,95730.88
2023-05-21T18:08:06.988Z,95732.75
2023-05-21T18:10:33.722Z,95738.50
2023-05-21T18:13:00.105Z,95741.28
2023-05-21T18:15:27.078Z,95732.34
2023-05-21T18:17:53.510Z,95733.25
2023-05-21T18:20:20.475Z,95738.91
2023-05-21T18:22:47.022Z,95731.19
2023-05-21T18:25:13.518Z,95742.31
2023-05-21T18:27:39.982Z,95727.66
2023-05-21T18:30:07.045Z,95726.31
2023-05-21T18:32:34.851Z,95738.63
2023-05-21T18:35:01.508Z,95734.84
2023-05-21T18:37:29.263Z,95732.28
2023-05-21T18:39:55.855Z,95734.47
2023-05-21T18:42:22.341Z,95737.03
2023-05-21T18:44:51.111Z,95751.94
2023-05-21T18:47:17.531Z,95747.91
2023-05-21T18:49:43.999Z,95748.69
2023-05-21T18:52:10.428Z,95742.94
2023-05-21T18:54:36.827Z,95744.72
2023-05-21T18:57:03.290Z,95746.91
2023-05-21T18:59:29.873Z,95748.69
2023-05-21T19:01:56.559Z,95751.06
2023-05-21T19:04:23.063Z,95768.50
2023-05-21T19:06:49.452Z,95769.06
2023-05-21T19:09:15.894Z,95774.00
2023-05-21T19:11:42.279Z,95766.47
2023-05-21T19:14:08.758Z,95756.66
2023-05-21T19:16:35.326Z,95778.47
2023-05-21T19:19:03.232Z,95777.13
2023-05-21T19:21:29.852Z,95784.75
2023-05-21T19:23:56.860Z,95776.16
2023-05-21T19:26:23.424Z,95788.72
2023-05-21T19:28:54.397Z,95798.97
2023-05-21T19:31:21.910Z,95801.69
2023-05-21T19:33:48.410Z,95808.31
2023-05-21T19:36:14.982Z,95819.97
2023-05-21T19:38:48.311Z,95815.59
2023-05-21T19:41:18.498Z,95812.16
2023-05-21T19:43:45.209Z,95827.75
2023-05-21T19:46:11.898Z,95829.34
2023-05-21T19:48:38.747Z,95837.22
2023-05-21T19:51:05.152Z,95841.00
2023-05-21T19:53:31.745Z,95841.50
2023-05-21T19:55:58.225Z,95841.25
2023-05-21T19:58:27.016Z,95851.25
2023-05-21T20:00:58.429Z,95860.25
2023-05-21T20:03:26.965Z,95865.03
2023-05-21T20:05:54.210Z,95861.81
2023-05-21T20:08:21.020Z,95869.59
2023-05-21T20:10:49.661Z,95865.97
2023-05-21T20:13:18.085Z,95872.19
2023-05-21T20:15:44.498Z,95881.03
2023-05-21T20:18:12.857Z,95871.75
2023-05-21T20:20:40.910Z,95878.09
2023-05-21T20:23:07.738Z,95875.06
2023-05-21T20:25:34.304Z,95878.53
2023-05-21T20:28:05.058Z,95880.63
2023-05-21T20:30:32.314Z,95889.03
2023-05-21T20:33:00.509Z,95884.50
2023-05-21T20:35:27.689Z,95889.47
2023-05-21T20:37:55.315Z,95891.03
2023-05-21T20:40:21.828Z,95889.47
2023-05-21T20:42:50.549Z,95902.63
2023-05-21T20:45:17.162Z,95908.56
2023-05-21T20:47:43.840Z,95910.97
2023-05-21T20:50:12.099Z,95916.44
2023-05-21T20:52:38.602Z,95918.44
2023-05-21T20:55:05.336Z,95918.34
2023-05-21T20:57:31.778Z,95925.94
2023-05-21T20:59:58.193Z,95929.75
2023-05-21T21:02:24.628Z,95927.88
2023-05-21T21:04:51.938Z,95927.88
2023-05-21T21:07:18.415Z,95930.31
2023-05-21T21:09:48.616Z,95927.72
2023-05-21T21:12:26.007Z,95935.56
2023-05-21T21:14:53.235Z,95936.59
2023-05-21T21:17:19.695Z,95950.09
2023-05-21T21:19:46.163Z,95936.31
2023-05-21T21:22:12.593Z,95936.16
2023-05-21T21:24:38.986Z,95944.38
2023-05-21T21:27:05.536Z,95952.13
2023-05-21T21:29:32.000Z,95950.59
2023-05-21T21:31:58.450Z,95946.66
2023-05-21T21:34:25.273Z,95954.88
2023-05-21T21:36:53.576Z,95963.00
2023-05-21T21:39:20.003Z,95964.16
2023-05-21T21:41:46.400Z,95959.84
2023-05-21T21:44:13.179Z,95957.19
2023-05-21T21:46:39.649Z,95968.22
2023-05-21T21:49:06.031Z,95954.88
2023-05-21T21:51:34.004Z,95956.53
2023-05-21T21:54:00.458Z,95955.13
2023-05-21T21:56:27.647Z,95951.44
2023-05-21T21:58:54.014Z,95959.09
2023-05-21T22:01:20.615Z,95954.09
2023-05-21T22:03:47.155Z,95950.78
2023-05-21T22:06:13.665Z,95958.50
2023-05-21T22:08:40.077Z,95951.00
2023-05-21T22:11:06.681Z,95946.63
2023-05-21T22:13:34.397Z,95951.47
2023-05-21T22:16:01.980Z,95971.00
2023-05-21T22:18:40.087Z,95962.38
2023-05-21T22:21:09.580Z,95969.16
2023-05-21T22:23:36.939Z,95965.66
2023-05-21T22:26:03.639Z,95966.31
2023-05-21T22:28:30.000Z,95964.13
2023-05-21T22:30:56.821Z,95974.84
2023-05-21T22:33:23.327Z,95972.91
2023-05-21T22:35:49.766Z,95989.72
2023-05-21T22:38:17.801Z,95982.50
2023-05-21T22:40:44.251Z,95987.16
2023-05-21T22:43:10.736Z,95977.72
2023-05-21T22:45:38.236Z,95980.09
2023-05-21T22:48:07.365Z,95987.47
2023-05-21T22:50:34.279Z,95991.59
2023-05-21T22:53:00.701Z,95990.16
2023-05-21T22:55:28.026Z,95992.56
2023-05-21T22:57:54.778Z,95990.03
2023-05-21T23:00:21.288Z,95987.78
2023-05-21T23:02:48.320Z,95994.16
2023-05-21T23:05:14.941Z,95995.59
2023-05-21T23:07:41.938Z,96001.22
2023-05-21T23:10:08.569Z,96003.41
2023-05-21T23:12:35.140Z,96007.44
2023-05-21T23:15:03.160Z,96006.47
2023-05-21T23:17:29.537Z,96010.63
2023-05-21T23:19:56.567Z,96011.41
2023-05-21T23:22:22.975Z,96014.59
2023-05-21T23:24:49.422Z,96022.25
2023-05-21T23:27:15.858Z,96018.59
2023-05-21T23:29:42.329Z,96027.06
2023-05-21T23:32:09.036Z,96031.19
2023-05-21T23:34:35.859Z,96029.91
2023-05-21T23:37:02.265Z,96029.75
2023-05-21T23:39:28.813Z,96029.91
2023-05-21T23:41:55.371Z,96035.66
2023-05-21T23:44:21.782Z,96032.78
2023-05-21T23:46:48.379Z,96039.53
2023-05-21T23:49:16.023Z,96046.84
2023-05-21T23:51:42.501Z,96046.34
2023-05-21T23:54:08.981Z,96045.50
2023-05-21T23:56:35.526Z,96053.00
2023-05-21T23:59:02.110Z,96059.19
